createdAt,value
2023-03-02T00:01:41.774Z,99.90
2023-03-02T00:04:12.519Z,99.90
2023-03-02T00:06:39.538Z,99.90
2023-03-02T00:09:06.496Z,99.90
2023-03-02T00:11:37.484Z,99.90
2023-03-02T00:14:05.035Z,99.90
2023-03-02T00:16:32.008Z,99.90
2023-03-02T00:18:58.929Z,99.90
2023-03-02T00:21:25.940Z,99.90
2023-03-02T00:23:53.059Z,99.90
2023-03-02T00:26:20.309Z,99.90
2023-03-02T00:28:47.329Z,99.90
2023-03-02T00:31:14.107Z,99.90
2023-03-02T00:33:40.863Z,99.90
2023-03-02T00:36:18.393Z,99.90
2023-03-02T00:38:45.233Z,99.90
2023-03-02T00:41:14.318Z,99.90
2023-03-02T00:43:41.244Z,99.90
2023-03-02T00:46:16.526Z,99.90
2023-03-02T00:48:43.474Z,99.90
2023-03-02T00:51:11.062Z,99.90
2023-03-02T00:53:38.553Z,99.90
2023-03-02T00:56:06.099Z,99.90
2023-03-02T00:58:33.189Z,99.90
2023-03-02T01:01:04.826Z,99.90
2023-03-02T01:03:31.633Z,99.90
2023-03-02T01:05:58.616Z,99.90
2023-03-02T01:08:25.299Z,99.90
2023-03-02T01:10:54.324Z,99.90
2023-03-02T01:13:21.324Z,99.90
2023-03-02T01:15:48.194Z,99.90
2023-03-02T01:18:14.987Z,99.90
2023-03-02T01:20:41.682Z,99.90
2023-03-02T01:23:08.325Z,99.90
2023-03-02T01:25:35.053Z,99.90
2023-03-02T01:28:01.746Z,99.90
2023-03-02T01:30:28.439Z,99.90
2023-03-02T01:32:55.101Z,99.90
2023-03-02T01:35:21.934Z,99.90
2023-03-02T01:37:48.646Z,99.90
2023-03-02T01:40:15.364Z,99.90
2023-03-02T01:42:51.199Z,99.90
2023-03-02T01:45:45.768Z,99.90
2023-03-02T01:48:14.526Z,99.90
2023-03-02T01:50:41.519Z,99.90
2023-03-02T01:53:08.459Z,99.90
2023-03-02T01:55:38.858Z,99.90
2023-03-02T01:58:06.822Z,99.90
2023-03-02T02:00:38.374Z,99.90
2023-03-02T02:03:16.284Z,99.90
2023-03-02T02:05:46.448Z,99.90
2023-03-02T02:08:14.001Z,99.90
2023-03-02T02:10:41.393Z,99.90
2023-03-02T02:13:11.692Z,99.90
2023-03-02T02:15:40.324Z,99.90
2023-03-02T02:18:08.025Z,99.90
2023-03-02T02:20:41.093Z,99.90
2023-03-02T02:23:27.507Z,99.90
2023-03-02T02:25:58.027Z,99.90
2023-03-02T02:28:44.800Z,99.90
2023-03-02T02:31:23.662Z,99.90
2023-03-02T02:33:55.425Z,99.90
2023-03-02T02:36:26.992Z,99.90
2023-03-02T02:38:56.319Z,99.90
2023-03-02T02:41:28.715Z,99.90
2023-03-02T02:43:56.178Z,99.90
2023-03-02T02:46:24.536Z,99.90
2023-03-02T02:48:51.517Z,99.90
2023-03-02T02:51:26.036Z,99.90
2023-03-02T02:54:00.217Z,99.90
2023-03-02T02:56:30.734Z,99.90
2023-03-02T02:59:03.162Z,99.90
2023-03-02T03:01:30.327Z,99.90
2023-03-02T03:04:01.393Z,99.90
2023-03-02T03:06:38.306Z,99.90
2023-03-02T03:09:07.089Z,99.90
2023-03-02T03:11:41.378Z,99.90
2023-03-02T03:14:10.721Z,99.90
2023-03-02T03:16:39.745Z,99.90
2023-03-02T03:19:27.892Z,99.90
2023-03-02T03:21:56.712Z,99.90
2023-03-02T03:24:24.225Z,99.90
2023-03-02T03:26:51.381Z,99.90
2023-03-02T03:29:18.867Z,99.90
2023-03-02T03:31:45.660Z,99.90
2023-03-02T03:34:12.621Z,99.90
2023-03-02T03:36:39.493Z,99.90
2023-03-02T03:39:06.413Z,99.90
2023-03-02T03:41:33.442Z,99.90
2023-03-02T03:44:00.237Z,99.90
2023-03-02T03:46:27.031Z,99.90
2023-03-02T03:48:53.919Z,99.90
2023-03-02T03:51:20.923Z,99.90
2023-03-02T03:53:59.574Z,99.90
2023-03-02T03:56:31.603Z,99.90
2023-03-02T03:59:06.390Z,99.90
2023-03-02T04:01:51.533Z,99.90
2023-03-02T04:04:21.986Z,99.90
2023-03-02T04:06:48.794Z,99.90
2023-03-02T04:09:17.983Z,99.90
2023-03-02T04:11:46.500Z,99.90
2023-03-02T04:14:14.071Z,99.90
2023-03-02T04:16:41.699Z,99.90
2023-03-02T04:19:09.505Z,99.90
2023-03-02T04:21:42.335Z,99.90
2023-03-02T04:24:09.486Z,99.90
2023-03-02T04:26:38.588Z,99.90
2023-03-02T04:29:06.258Z,99.90
2023-03-02T04:31:33.021Z,99.90
2023-03-02T04:34:00.615Z,99.90
2023-03-02T04:36:27.310Z,99.90
2023-03-02T04:38:54.407Z,99.90
2023-03-02T04:41:21.763Z,99.90
2023-03-02T04:43:49.071Z,99.90
2023-03-02T04:46:18.860Z,99.90
2023-03-02T04:48:45.772Z,99.90
2023-03-02T04:51:24.039Z,99.90
2023-03-02T04:53:52.799Z,99.90
2023-03-02T04:56:20.019Z,99.90
2023-03-02T04:58:46.745Z,99.90
2023-03-02T05:01:14.961Z,99.90
2023-03-02T05:03:42.081Z,99.90
2023-03-02T05:06:09.095Z,99.90
2023-03-02T05:08:35.841Z,99.90
2023-03-02T05:11:03.355Z,99.90
2023-03-02T05:13:30.187Z,99.90
2023-03-02T05:15:58.410Z,99.90
2023-03-02T05:18:25.376Z,99.90
2023-03-02T05:20:53.742Z,99.90
2023-03-02T05:23:25.714Z,99.90
2023-03-02T05:25:55.105Z,99.90
2023-03-02T05:28:23.223Z,99.90
2023-03-02T05:30:51.000Z,99.90
2023-03-02T05:33:18.498Z,99.90
2023-03-02T05:35:45.476Z,99.90
2023-03-02T05:38:12.492Z,99.90
2023-03-02T05:40:40.421Z,99.90
2023-03-02T05:43:07.381Z,99.90
2023-03-02T05:45:38.772Z,99.90
2023-03-02T05:48:06.005Z,99.90
2023-03-02T05:50:33.155Z,99.90
2023-03-02T05:53:02.370Z,99.90
2023-03-02T05:55:29.616Z,99.90
2023-03-02T05:57:56.945Z,99.90
2023-03-02T06:00:24.032Z,99.90
2023-03-02T06:02:50.872Z,99.90
2023-03-02T06:05:19.609Z,99.90
2023-03-02T06:07:46.564Z,99.90
2023-03-02T06:10:13.998Z,99.90
2023-03-02T06:12:40.913Z,99.90
2023-03-02T06:15:08.897Z,99.90
2023-03-02T06:17:35.870Z,99.90
2023-03-02T06:20:04.986Z,99.90
2023-03-02T06:22:31.673Z,99.90
2023-03-02T06:24:58.325Z,99.90
2023-03-02T06:27:24.970Z,99.90
2023-03-02T06:29:51.752Z,99.90
2023-03-02T06:32:18.510Z,99.90
2023-03-02T06:34:45.275Z,99.90
2023-03-02T06:37:11.991Z,99.90
2023-03-02T06:39:38.749Z,99.90
2023-03-02T06:42:05.479Z,99.90
2023-03-02T06:44:32.314Z,99.90
2023-03-02T06:46:58.957Z,99.90
2023-03-02T06:49:25.747Z,99.90
2023-03-02T06:51:52.403Z,99.90
2023-03-02T06:54:19.094Z,99.90
2023-03-02T06:56:45.740Z,99.90
2023-03-02T06:59:12.377Z,99.90
2023-03-02T07:01:39.104Z,99.90
2023-03-02T07:04:05.864Z,99.90
2023-03-02T07:06:32.639Z,99.90
2023-03-02T07:08:59.271Z,99.90
2023-03-02T07:11:25.916Z,99.90
2023-03-02T07:13:52.626Z,99.90
2023-03-02T07:16:19.369Z,99.90
2023-03-02T07:18:46.088Z,99.90
2023-03-02T07:21:12.779Z,99.90
2023-03-02T07:23:39.441Z,99.90
2023-03-02T07:26:08.518Z,99.90
2023-03-02T07:28:41.677Z,99.90
2023-03-02T07:31:09.665Z,99.90
2023-03-02T07:33:37.668Z,99.90
2023-03-02T07:36:05.399Z,99.90
2023-03-02T07:38:32.354Z,99.90
2023-03-02T07:40:59.036Z,99.90
2023-03-02T07:43:26.564Z,99.90
2023-03-02T07:45:53.287Z,99.90
2023-03-02T07:48:20.093Z,99.90
2023-03-02T07:50:46.822Z,99.90
2023-03-02T07:53:13.449Z,99.90
2023-03-02T07:55:41.534Z,99.90
2023-03-02T07:58:08.509Z,99.90
2023-03-02T08:00:36.663Z,99.90
2023-03-02T08:03:03.503Z,99.90
2023-03-02T08:05:31.126Z,99.90
2023-03-02T08:07:57.927Z,99.90
2023-03-02T08:10:24.594Z,99.90
2023-03-02T08:12:51.273Z,99.90
2023-03-02T08:15:18.014Z,99.90
2023-03-02T08:17:45.056Z,99.90
2023-03-02T08:20:12.270Z,99.90
2023-03-02T08:22:39.044Z,99.90
2023-03-02T08:25:07.226Z,99.90
2023-03-02T08:27:34.032Z,99.90
2023-03-02T08:30:00.711Z,99.90
2023-03-02T08:32:27.604Z,99.90
2023-03-02T08:34:54.489Z,99.90
2023-03-02T08:37:21.192Z,99.90
2023-03-02T08:39:48.394Z,99.90
2023-03-02T08:42:15.196Z,99.90
2023-03-02T08:44:41.861Z,99.90
2023-03-02T08:47:08.582Z,99.90
2023-03-02T08:49:38.047Z,99.90
2023-03-02T08:52:05.364Z,99.90
2023-03-02T08:54:34.455Z,99.90
2023-03-02T08:57:02.493Z,99.90
2023-03-02T08:59:29.205Z,99.90
2023-03-02T09:01:55.889Z,99.90
2023-03-02T09:04:22.669Z,99.90
2023-03-02T09:06:49.429Z,99.90
2023-03-02T09:09:16.113Z,99.90
2023-03-02T09:11:44.762Z,99.90
2023-03-02T09:14:12.373Z,99.90
2023-03-02T09:16:39.482Z,99.90
2023-03-02T09:19:06.562Z,99.90
2023-03-02T09:21:33.516Z,99.90
2023-03-02T09:24:00.503Z,99.90
2023-03-02T09:26:27.945Z,99.90
2023-03-02T09:28:55.665Z,99.90
2023-03-02T09:31:22.608Z,99.90
2023-03-02T09:33:49.371Z,99.90
2023-03-02T09:36:23.621Z,99.90
2023-03-02T09:38:50.493Z,99.90
2023-03-02T09:41:20.228Z,99.90
2023-03-02T09:44:08.194Z,99.90
2023-03-02T09:46:52.138Z,99.90
2023-03-02T09:50:02.992Z,99.90
2023-03-02T09:52:55.876Z,99.90
2023-03-02T09:55:27.517Z,99.90
2023-03-02T09:57:55.467Z,99.90
2023-03-02T10:02:54.008Z,97.60
2023-03-02T10:05:27.262Z,96.90
2023-03-02T10:07:53.993Z,99.90
2023-03-02T10:10:33.599Z,25.00
2023-03-02T10:13:08.959Z,1.00
2023-03-02T10:15:38.481Z,1.00
2023-03-02T10:20:43.598Z,7.40
2023-03-02T10:23:33.497Z,1.00
2023-03-02T10:26:17.634Z,1.00
2023-03-02T10:28:50.037Z,1.00
2023-03-02T10:31:27.285Z,1.00
2023-03-02T10:33:54.451Z,1.00
2023-03-02T10:36:37.338Z,1.00
2023-03-02T10:39:12.315Z,1.00
2023-03-02T10:41:46.282Z,1.00
2023-03-02T10:44:27.329Z,1.00
2023-03-02T10:49:30.145Z,1.00
2023-03-02T10:51:59.927Z,1.00
2023-03-02T10:54:28.728Z,1.00
2023-03-02T10:56:58.723Z,1.00
2023-03-02T10:59:25.970Z,1.00
2023-03-02T11:02:19.144Z,1.00
2023-03-02T11:04:46.039Z,1.00
2023-03-02T11:07:21.336Z,1.00
2023-03-02T11:10:20.065Z,1.00
2023-03-02T11:12:49.047Z,1.00
2023-03-02T11:15:18.328Z,1.00
2023-03-02T11:17:48.183Z,1.00
2023-03-02T11:20:26.101Z,1.00
2023-03-02T11:23:13.424Z,1.00
2023-03-02T11:25:48.413Z,1.00
2023-03-02T11:28:33.252Z,1.00
2023-03-02T11:31:02.470Z,1.00
2023-03-02T11:33:52.553Z,1.00
2023-03-02T11:36:23.799Z,1.00
2023-03-02T11:38:54.932Z,1.00
2023-03-02T11:41:29.842Z,1.00
2023-03-02T11:44:20.265Z,1.00
2023-03-02T11:46:51.191Z,1.00
2023-03-02T11:49:28.782Z,1.00
2023-03-02T11:51:58.898Z,1.00
2023-03-02T11:54:40.850Z,1.00
2023-03-02T11:57:20.424Z,1.00
2023-03-02T11:59:47.867Z,1.00
2023-03-02T12:02:15.253Z,1.00
2023-03-02T12:07:25.005Z,1.00
2023-03-02T12:10:06.109Z,1.00
2023-03-02T12:12:44.074Z,1.00
2023-03-02T12:15:35.151Z,1.00
2023-03-02T12:20:30.986Z,1.00
2023-03-02T12:23:09.623Z,1.00
2023-03-02T12:25:40.407Z,1.00
2023-03-02T12:28:26.592Z,1.00
2023-03-02T12:31:02.754Z,1.00
2023-03-02T12:36:21.008Z,1.00
2023-03-02T12:38:59.916Z,1.00
2023-03-02T12:41:32.668Z,1.00
2023-03-02T12:44:20.373Z,1.00
2023-03-02T12:46:48.328Z,1.00
2023-03-02T12:49:32.393Z,1.00
2023-03-02T12:52:21.150Z,1.00
2023-03-02T12:55:19.958Z,1.00
2023-03-02T12:57:56.427Z,1.00
2023-03-02T13:00:26.935Z,1.00
2023-03-02T13:02:56.144Z,1.00
2023-03-02T13:05:26.070Z,1.00
2023-03-02T13:08:00.688Z,1.00
2023-03-02T13:12:54.801Z,10.90
2023-03-02T13:15:21.567Z,9.30
2023-03-02T13:17:57.075Z,31.90
2023-03-02T13:20:27.985Z,92.70
2023-03-02T13:25:28.386Z,99.90
2023-03-02T13:28:07.833Z,99.90
2023-03-02T13:30:37.436Z,99.90
2023-03-02T13:33:22.614Z,99.90
2023-03-02T13:38:18.887Z,99.90
2023-03-02T13:40:48.449Z,99.90
2023-03-02T13:43:30.468Z,99.90
2023-03-02T13:46:25.587Z,99.90
2023-03-02T13:49:11.310Z,99.90
2023-03-02T13:51:42.054Z,99.90
2023-03-02T13:54:25.828Z,99.90
2023-03-02T13:56:53.791Z,99.90
2023-03-02T13:59:21.980Z,99.90
2023-03-02T14:01:48.735Z,99.90
2023-03-02T14:04:17.977Z,99.90
2023-03-02T14:06:45.848Z,99.90
2023-03-02T14:09:13.352Z,99.90
2023-03-02T14:11:46.757Z,99.90
2023-03-02T14:14:19.420Z,99.90
2023-03-02T14:16:46.210Z,99.90
2023-03-02T14:19:13.756Z,99.90
2023-03-02T14:21:42.055Z,99.90
2023-03-02T14:24:09.213Z,99.90
2023-03-02T14:26:44.426Z,99.90
2023-03-02T14:29:26.752Z,99.90
2023-03-02T14:32:00.109Z,99.90
2023-03-02T14:34:27.319Z,99.90
2023-03-02T14:36:58.140Z,99.90
2023-03-02T14:39:42.939Z,99.90
2023-03-02T14:42:16.457Z,99.90
2023-03-02T14:44:44.662Z,99.90
2023-03-02T14:47:11.716Z,99.90
2023-03-02T14:49:39.190Z,99.90
2023-03-02T14:52:16.412Z,99.90
2023-03-02T14:54:56.165Z,99.90
2023-03-02T14:57:25.691Z,99.90
2023-03-02T14:59:53.591Z,99.90
2023-03-02T15:02:26.027Z,99.90
2023-03-02T15:04:56.529Z,99.90
2023-03-02T15:07:24.654Z,99.90
2023-03-02T15:09:51.353Z,99.90
2023-03-02T15:12:18.067Z,99.90
2023-03-02T15:14:45.125Z,99.90
2023-03-02T15:19:39.165Z,99.90
2023-03-02T15:22:05.844Z,99.90
2023-03-02T15:24:33.548Z,99.90
2023-03-02T15:36:49.254Z,99.90
2023-03-02T15:41:43.638Z,99.90
2023-03-02T15:44:21.701Z,99.90
2023-03-02T15:46:56.391Z,99.90
2023-03-02T15:49:24.887Z,99.90
2023-03-02T15:51:52.779Z,99.90
2023-03-02T15:54:19.513Z,99.90
2023-03-02T15:56:49.537Z,99.90
2023-03-02T15:59:16.290Z,99.90
2023-03-02T16:01:42.986Z,99.90
2023-03-02T16:04:10.277Z,99.90
2023-03-02T16:06:37.233Z,99.90
2023-03-02T16:09:04.479Z,99.90
2023-03-02T16:11:31.167Z,99.90
2023-03-02T16:13:57.855Z,99.90
2023-03-02T16:16:24.852Z,99.90
2023-03-02T16:18:53.306Z,99.90
2023-03-02T16:21:20.589Z,99.90
2023-03-02T16:23:47.384Z,99.90
2023-03-02T16:26:16.356Z,99.90
2023-03-02T16:28:43.226Z,99.90
2023-03-02T16:31:15.421Z,99.90
2023-03-02T16:33:42.271Z,99.90
2023-03-02T16:36:09.600Z,99.90
2023-03-02T16:38:37.452Z,99.90
2023-03-02T16:41:10.094Z,99.90
2023-03-02T16:43:44.150Z,99.90
2023-03-02T16:46:10.951Z,99.90
2023-03-02T16:48:37.701Z,99.90
2023-03-02T16:51:04.921Z,99.90
2023-03-02T16:53:31.848Z,99.90
2023-03-02T16:55:58.635Z,99.90
2023-03-02T16:58:25.800Z,99.90
2023-03-02T17:00:52.663Z,99.90
2023-03-02T17:03:19.410Z,99.90
2023-03-02T17:05:46.252Z,99.90
2023-03-02T17:08:15.267Z,99.90
2023-03-02T17:10:43.148Z,99.90
2023-03-02T17:13:12.121Z,99.90
2023-03-02T17:15:38.924Z,99.90
2023-03-02T17:18:05.673Z,99.90
2023-03-02T17:20:32.328Z,99.90
2023-03-02T17:22:59.043Z,99.90
2023-03-02T17:25:26.062Z,99.90
2023-03-02T17:27:52.800Z,99.90
2023-03-02T17:30:20.138Z,99.90
2023-03-02T17:32:47.081Z,99.90
2023-03-02T17:35:14.260Z,99.90
2023-03-02T17:37:41.213Z,99.90
2023-03-02T17:40:08.808Z,99.90
2023-03-02T17:42:35.908Z,99.90
2023-03-02T17:45:02.652Z,99.90
2023-03-02T17:47:30.603Z,99.90
2023-03-02T17:49:58.339Z,99.90
2023-03-02T17:52:25.405Z,99.90
2023-03-02T17:54:54.095Z,99.90
2023-03-02T17:57:22.627Z,99.90
2023-03-02T17:59:52.766Z,99.90
2023-03-02T18:02:19.505Z,99.90
2023-03-02T18:04:46.310Z,99.90
2023-03-02T18:07:14.207Z,99.90
2023-03-02T18:09:40.863Z,99.90
2023-03-02T18:12:08.042Z,99.90
2023-03-02T18:14:36.270Z,99.90
2023-03-02T18:17:04.964Z,99.90
2023-03-02T18:19:31.698Z,99.90
2023-03-02T18:21:58.667Z,99.90
2023-03-02T18:24:25.958Z,99.90
2023-03-02T18:26:52.806Z,99.90
2023-03-02T18:29:19.645Z,99.90
2023-03-02T18:31:46.379Z,99.90
2023-03-02T18:34:13.213Z,99.90
2023-03-02T18:36:39.951Z,99.90
2023-03-02T18:39:06.637Z,99.90
2023-03-02T18:41:33.346Z,99.90
2023-03-02T18:44:01.287Z,99.90
2023-03-02T18:46:30.634Z,99.90
2023-03-02T18:48:58.369Z,99.90
2023-03-02T18:51:25.623Z,99.90
2023-03-02T18:53:53.298Z,99.90
2023-03-02T18:56:20.555Z,99.90
2023-03-02T18:58:49.610Z,99.90
2023-03-02T19:01:16.803Z,99.90
2023-03-02T19:03:45.711Z,99.90
2023-03-02T19:06:13.201Z,99.90
2023-03-02T19:11:08.777Z,99.90
2023-03-02T19:13:35.546Z,99.90
2023-03-02T19:16:03.055Z,99.90
2023-03-02T19:18:30.896Z,99.90
2023-03-02T19:20:57.883Z,99.90
2023-03-02T19:23:25.161Z,99.90
2023-03-02T19:25:52.420Z,99.90
2023-03-02T19:28:21.588Z,99.90
2023-03-02T19:30:49.483Z,99.90
2023-03-02T19:33:16.573Z,99.90
2023-03-02T19:35:43.670Z,99.90
2023-03-02T19:38:10.901Z,99.90
2023-03-02T19:40:38.111Z,99.90
2023-03-02T19:43:05.237Z,99.90
2023-03-02T19:45:34.818Z,99.90
2023-03-02T19:48:02.744Z,99.90
2023-03-02T19:50:30.228Z,99.90
2023-03-02T19:52:57.916Z,99.90
2023-03-02T19:55:25.528Z,99.90
2023-03-02T19:57:59.463Z,99.90
2023-03-02T20:00:28.218Z,99.90
2023-03-02T20:02:55.348Z,99.90
2023-03-02T20:05:22.121Z,99.90
2023-03-02T20:07:49.002Z,99.90
2023-03-02T20:10:46.174Z,99.90
2023-03-02T20:13:12.986Z,99.90
2023-03-02T20:15:41.656Z,99.90
2023-03-02T20:18:11.288Z,99.90
2023-03-02T23:49:35.305Z,99.90
2023-03-02T23:52:02.169Z,99.90
2023-03-02T23:54:28.878Z,99.90
2023-03-02T23:56:55.870Z,99.90
2023-03-02T23:59:22.541Z,99.90
